createdAt,value
2018-06-24T00:01:01.434Z,12.68
2018-06-24T00:03:30.095Z,12.72
2018-06-24T00:05:58.720Z,12.69
2018-06-24T00:08:27.361Z,12.67
2018-06-24T00:10:56.065Z,12.62
2018-06-24T00:13:24.698Z,12.73
2018-06-24T00:15:53.351Z,12.78
2018-06-24T00:18:21.969Z,12.81
2018-06-24T00:20:50.627Z,12.78
2018-06-24T00:23:19.300Z,12.87
2018-06-24T00:25:48.058Z,12.91
2018-06-24T00:28:16.686Z,12.78
2018-06-24T00:30:45.326Z,12.74
2018-06-24T00:33:13.946Z,12.69
2018-06-24T00:35:42.669Z,12.67
2018-06-24T00:38:11.325Z,12.56
2018-06-24T00:40:40.046Z,12.66
2018-06-24T00:43:08.679Z,12.70
2018-06-24T00:45:37.283Z,12.67
2018-06-24T00:48:05.974Z,12.68
2018-06-24T00:50:34.608Z,12.64
2018-06-24T00:53:03.368Z,12.65
2018-06-24T00:55:31.983Z,12.71
2018-06-24T00:58:00.686Z,12.71
2018-06-24T01:00:29.338Z,12.70
2018-06-24T01:02:57.947Z,12.65
2018-06-24T01:05:26.607Z,12.50
2018-06-24T01:07:55.258Z,12.52
2018-06-24T01:10:23.850Z,12.52
2018-06-24T01:12:52.516Z,12.46
2018-06-24T01:15:21.179Z,12.40
2018-06-24T01:17:49.833Z,12.30
2018-06-24T01:20:18.551Z,12.25
2018-06-24T01:22:47.242Z,12.23
2018-06-24T01:25:15.846Z,12.32
2018-06-24T01:27:44.430Z,12.26
2018-06-24T01:30:13.088Z,12.32
2018-06-24T01:32:41.711Z,12.17
2018-06-24T01:35:10.439Z,12.05
2018-06-24T01:37:39.039Z,12.06
2018-06-24T01:40:07.710Z,12.04
2018-06-24T01:42:36.344Z,11.95
2018-06-24T01:45:04.989Z,11.96
2018-06-24T01:47:33.628Z,11.99
2018-06-24T01:50:02.258Z,11.99
2018-06-24T01:52:30.881Z,12.04
2018-06-24T01:54:59.495Z,12.07
2018-06-24T01:57:28.110Z,12.08
2018-06-24T01:59:56.723Z,12.05
2018-06-24T02:02:25.404Z,12.01
2018-06-24T02:04:54.036Z,11.99
2018-06-24T02:07:22.755Z,12.03
2018-06-24T02:09:51.361Z,11.99
2018-06-24T02:12:20.030Z,11.94
2018-06-24T02:14:48.655Z,11.81
2018-06-24T02:17:17.302Z,11.77
2018-06-24T02:19:46.002Z,11.73
2018-06-24T02:22:14.761Z,11.74
2018-06-24T02:24:43.398Z,11.83
2018-06-24T02:27:12.079Z,11.82
2018-06-24T02:29:40.788Z,11.75
2018-06-24T02:32:09.402Z,11.73
2018-06-24T02:34:38.031Z,11.66
2018-06-24T02:37:06.895Z,11.64
2018-06-24T02:39:35.518Z,11.59
2018-06-24T02:42:04.181Z,11.53
2018-06-24T02:44:32.879Z,11.43
2018-06-24T02:47:01.871Z,11.50
2018-06-24T02:49:30.577Z,11.52
2018-06-24T02:51:59.241Z,11.49
2018-06-24T02:54:27.835Z,11.47
2018-06-24T02:56:56.508Z,11.45
2018-06-24T02:59:25.176Z,11.49
2018-06-24T03:01:53.857Z,11.55
2018-06-24T03:04:22.472Z,11.58
2018-06-24T03:06:51.157Z,11.63
2018-06-24T03:09:19.872Z,11.61
2018-06-24T03:11:48.564Z,11.72
2018-06-24T03:14:17.239Z,11.72
2018-06-24T03:16:45.865Z,11.80
2018-06-24T03:19:14.460Z,11.74
2018-06-24T03:21:43.113Z,11.60
2018-06-24T03:24:11.745Z,11.63
2018-06-24T03:26:40.367Z,11.67
2018-06-24T03:29:09.054Z,11.65
2018-06-24T03:31:37.719Z,11.66
2018-06-24T03:34:06.559Z,11.68
2018-06-24T03:36:35.227Z,11.77
2018-06-24T03:39:04.028Z,11.87
2018-06-24T03:41:32.658Z,11.94
2018-06-24T03:44:01.515Z,12.04
2018-06-24T03:46:30.131Z,12.11
2018-06-24T03:48:59.290Z,12.16
2018-06-24T03:51:27.919Z,12.12
2018-06-24T03:53:56.566Z,12.12
2018-06-24T03:56:25.166Z,12.12
2018-06-24T03:58:53.850Z,12.13
2018-06-24T04:01:22.486Z,12.08
2018-06-24T04:03:51.113Z,12.07
2018-06-24T04:06:19.804Z,12.00
2018-06-24T04:08:48.442Z,11.99
2018-06-24T04:11:17.053Z,12.10
2018-06-24T04:13:45.722Z,12.13
2018-06-24T04:16:14.348Z,12.14
2018-06-24T04:18:43.874Z,12.12
2018-06-24T04:21:15.550Z,12.10
2018-06-24T04:23:45.297Z,12.08
2018-06-24T04:26:14.058Z,12.13
2018-06-24T04:28:42.746Z,12.16
2018-06-24T04:31:12.068Z,12.19
2018-06-24T04:33:41.061Z,12.26
2018-06-24T04:36:09.712Z,12.33
2018-06-24T04:38:38.600Z,12.43
2018-06-24T04:41:07.357Z,12.26
2018-06-24T04:43:35.970Z,12.32
2018-06-24T04:46:04.628Z,12.42
2018-06-24T04:48:33.243Z,12.57
2018-06-24T04:51:01.876Z,12.51
2018-06-24T04:53:30.550Z,12.50
2018-06-24T04:55:59.196Z,12.41
2018-06-24T04:58:27.830Z,12.48
2018-06-24T05:00:56.886Z,12.61
2018-06-24T05:03:25.564Z,12.64
2018-06-24T05:05:54.312Z,12.70
2018-06-24T05:08:22.972Z,12.79
2018-06-24T05:10:51.682Z,12.86
2018-06-24T05:13:20.348Z,12.81
2018-06-24T05:15:49.058Z,12.89
2018-06-24T05:18:17.681Z,12.95
2018-06-24T05:20:46.305Z,12.86
2018-06-24T05:23:14.988Z,12.83
2018-06-24T05:25:43.615Z,12.89
2018-06-24T05:28:12.236Z,12.85
2018-06-24T05:30:41.046Z,12.87
2018-06-24T05:33:09.661Z,13.02
2018-06-24T05:35:38.291Z,13.19
2018-06-24T05:38:06.942Z,13.21
2018-06-24T05:40:35.618Z,13.21
2018-06-24T05:43:04.320Z,13.37
2018-06-24T05:45:33.055Z,13.48
2018-06-24T05:48:01.858Z,13.59
2018-06-24T05:50:30.688Z,13.68
2018-06-24T05:52:59.333Z,13.72
2018-06-24T05:55:27.979Z,13.79
2018-06-24T05:57:56.635Z,13.76
2018-06-24T06:00:25.490Z,13.86
2018-06-24T06:02:54.287Z,13.96
2018-06-24T06:05:23.242Z,14.00
2018-06-24T06:07:52.003Z,14.16
2018-06-24T06:10:20.788Z,14.18
2018-06-24T06:12:49.362Z,14.26
2018-06-24T06:15:18.126Z,14.36
2018-06-24T06:17:46.795Z,14.41
2018-06-24T06:20:15.466Z,14.44
2018-06-24T06:22:44.116Z,14.45
2018-06-24T06:25:12.805Z,14.58
2018-06-24T06:27:41.656Z,14.69
2018-06-24T06:30:10.515Z,14.75
2018-06-24T06:32:40.133Z,14.81
2018-06-24T06:35:08.798Z,14.84
2018-06-24T06:37:37.442Z,14.71
2018-06-24T06:40:06.346Z,14.69
2018-06-24T06:42:34.959Z,14.49
2018-06-24T06:45:03.760Z,14.67
2018-06-24T06:47:32.428Z,14.91
2018-06-24T06:50:01.058Z,15.09
2018-06-24T06:52:30.609Z,15.24
2018-06-24T06:54:59.295Z,15.39
2018-06-24T06:57:28.652Z,15.46
2018-06-24T06:59:57.321Z,15.53
2018-06-24T07:02:25.978Z,15.73
2018-06-24T07:04:54.586Z,15.63
2018-06-24T07:07:23.252Z,15.71
2018-06-24T07:09:51.882Z,15.74
2018-06-24T07:12:20.589Z,15.83
2018-06-24T07:14:49.212Z,15.93
2018-06-24T07:17:17.957Z,16.01
2018-06-24T07:19:46.618Z,16.06
2018-06-24T07:22:15.277Z,16.28
2018-06-24T07:24:43.909Z,16.40
2018-06-24T07:27:12.619Z,16.55
2018-06-24T07:29:41.268Z,16.59
2018-06-24T07:32:10.000Z,16.76
2018-06-24T07:34:38.614Z,16.81
2018-06-24T07:37:07.244Z,16.74
2018-06-24T07:39:35.903Z,16.69
2018-06-24T07:42:04.543Z,16.66
2018-06-24T07:44:33.157Z,16.94
2018-06-24T07:47:01.813Z,17.21
2018-06-24T19:25:17.594Z,17.66
2018-06-24T19:27:46.383Z,17.77
2018-06-24T19:30:15.023Z,17.83
2018-06-24T19:32:43.792Z,17.86
2018-06-24T19:35:12.494Z,17.87
2018-06-24T19:37:41.346Z,17.99
2018-06-24T19:40:10.124Z,17.99
2018-06-24T19:42:39.675Z,18.01
2018-06-24T19:45:08.830Z,18.05
2018-06-24T19:47:37.516Z,18.11
2018-06-24T19:50:06.446Z,18.13
2018-06-24T19:52:35.435Z,18.03
2018-06-24T19:55:04.284Z,17.95
2018-06-24T19:57:32.981Z,17.85
2018-06-24T20:00:02.157Z,17.93
2018-06-24T20:02:30.899Z,17.96
2018-06-24T20:04:59.682Z,17.80
2018-06-24T20:07:28.343Z,17.87
2018-06-24T20:09:57.082Z,17.85
2018-06-24T20:12:27.280Z,17.95
2018-06-24T20:14:56.036Z,17.88
2018-06-24T20:17:24.798Z,17.90
2018-06-24T20:19:53.492Z,17.88
2018-06-24T20:22:22.128Z,17.75
2018-06-24T20:24:50.969Z,17.82
2018-06-24T20:27:19.669Z,17.87
2018-06-24T20:29:48.435Z,17.77
2018-06-24T20:32:17.037Z,17.73
2018-06-24T20:34:45.900Z,17.69
2018-06-24T20:37:14.623Z,17.59
2018-06-24T20:39:43.348Z,17.59
2018-06-24T20:42:12.031Z,17.57
2018-06-24T20:44:40.789Z,17.48
2018-06-24T20:47:09.559Z,17.45
2018-06-24T20:49:38.514Z,17.42
2018-06-24T20:52:07.288Z,17.36
2018-06-24T20:54:36.037Z,17.32
2018-06-24T20:57:04.850Z,17.37
2018-06-24T20:59:33.631Z,17.31
2018-06-24T21:02:02.347Z,17.30
2018-06-24T21:04:31.717Z,17.28
2018-06-24T21:07:00.406Z,17.30
2018-06-24T21:09:29.120Z,17.18
2018-06-24T21:11:57.771Z,17.18
2018-06-24T21:14:26.432Z,17.12
2018-06-24T21:16:55.142Z,17.14
2018-06-24T21:19:23.798Z,17.07
2018-06-24T21:21:52.499Z,17.05
2018-06-24T21:24:25.435Z,17.00
2018-06-24T21:26:54.136Z,16.88
2018-06-24T21:29:22.905Z,16.91
2018-06-24T21:31:51.611Z,16.91
2018-06-24T21:34:20.343Z,16.88
2018-06-24T21:36:49.050Z,16.82
2018-06-24T21:39:17.768Z,16.83
2018-06-24T21:41:46.400Z,16.83
2018-06-24T21:44:15.033Z,16.74
2018-06-24T21:46:43.713Z,16.65
2018-06-24T21:49:12.438Z,16.73
2018-06-24T21:51:41.169Z,16.73
2018-06-24T21:54:09.872Z,16.71
2018-06-24T21:56:38.629Z,16.71
2018-06-24T21:59:07.378Z,16.69
2018-06-24T22:01:37.036Z,16.62
2018-06-24T22:04:05.965Z,16.52
2018-06-24T22:06:34.679Z,16.41
2018-06-24T22:09:03.740Z,16.40
2018-06-24T22:11:32.514Z,16.42
2018-06-24T22:14:01.146Z,16.41
2018-06-24T22:16:29.799Z,16.26
2018-06-24T22:18:58.466Z,16.23
2018-06-24T22:21:27.358Z,16.23
2018-06-24T22:23:56.370Z,16.18
2018-06-24T22:26:25.153Z,16.21
2018-06-24T22:28:53.849Z,16.22
2018-06-24T22:31:22.543Z,16.18
2018-06-24T22:33:51.249Z,16.14
2018-06-24T22:36:19.948Z,16.00
2018-06-24T22:38:48.669Z,16.11
2018-06-24T22:41:17.320Z,16.08
2018-06-24T22:43:46.072Z,16.06
2018-06-24T22:46:14.903Z,15.99
2018-06-24T22:48:43.552Z,15.99
2018-06-24T22:51:12.939Z,15.93
2018-06-24T22:53:41.645Z,15.91
2018-06-24T22:56:10.358Z,15.96
2018-06-24T22:58:38.965Z,15.90
2018-06-24T23:01:07.730Z,15.78
2018-06-24T23:03:36.485Z,15.84
2018-06-24T23:06:05.182Z,15.85
2018-06-24T23:08:33.907Z,15.83
2018-06-24T23:11:02.588Z,15.84
2018-06-24T23:13:31.948Z,15.88
2018-06-24T23:16:00.711Z,15.83
2018-06-24T23:18:29.372Z,15.77
2018-06-24T23:20:58.242Z,15.77
2018-06-24T23:23:26.933Z,15.71
2018-06-24T23:25:55.638Z,15.67
2018-06-24T23:28:24.748Z,15.69
2018-06-24T23:30:53.467Z,15.65
2018-06-24T23:33:22.145Z,15.59
2018-06-24T23:35:50.857Z,15.55
2018-06-24T23:38:19.526Z,15.48
2018-06-24T23:40:48.307Z,15.52
2018-06-24T23:43:16.966Z,15.41
2018-06-24T23:45:45.638Z,15.41
2018-06-24T23:48:14.279Z,15.36
2018-06-24T23:50:42.958Z,15.44
2018-06-24T23:53:11.644Z,15.43
2018-06-24T23:55:40.552Z,15.33
2018-06-24T23:58:09.298Z,15.28
